Time;durP1;ratioP1;P1;durP2;ratioP2;P2;SDS_P1;SDS_P2;PMS_P1;PMS_P2;Temp;Humidity;BMP_temperature;BMP_pressure;BME280_temperature;BME280_humidity;BME280_pressure;Samples;Min_cycle;Max_cycle;Signal;HPM_P1;HPM_P2
2023/01/05 00:02:18;;;;;;;1.80;1.70;;;10.30;99.90;;;;;;10470014;28;20239;-67
2023/01/05 00:07:18;;;;;;;1.70;1.47;;;10.30;99.90;;;;;;10475362;28;20218;-67
2023/01/05 00:23:18;;;;;;;2.53;2.33;;;10.30;99.90;;;;;;10446290;28;20223;-68
2023/01/05 00:28:19;;;;;;;1.60;1.07;;;10.30;99.90;;;;;;10469492;28;20302;-68
2023/01/05 00:33:19;;;;;;;2.90;1.23;;;10.30;99.90;;;;;;10464498;28;20309;-68
2023/01/05 00:38:20;;;;;;;4.60;1.47;;;10.30;99.90;;;;;;10469864;28;20668;-68
2023/01/05 00:43:20;;;;;;;1.43;1.10;;;10.30;99.90;;;;;;10457533;28;20226;-68
2023/01/05 00:48:21;;;;;;;4.53;0.90;;;10.30;99.90;;;;;;10481616;28;20277;-66
2023/01/05 00:53:21;;;;;;;0.80;0.80;;;10.30;99.90;;;;;;10451386;28;20700;-67
2023/01/05 00:58:22;;;;;;;1.83;0.70;;;10.40;99.90;;;;;;10475024;28;20643;-67
2023/01/05 01:03:22;;;;;;;1.43;0.80;;;10.40;99.90;;;;;;10454724;28;20218;-68
2023/01/05 01:08:23;;;;;;;1.47;0.80;;;10.40;99.90;;;;;;10476460;28;20235;-67
2023/01/05 01:13:24;;;;;;;2.13;1.00;;;10.40;99.90;;;;;;10471919;28;20653;-68
2023/01/05 01:18:24;;;;;;;1.17;0.83;;;10.40;99.90;;;;;;10468342;28;20220;-69
2023/01/05 01:23:25;;;;;;;3.33;0.97;;;10.40;99.90;;;;;;10471085;28;20226;-68
2023/01/05 01:28:26;;;;;;;2.30;0.90;;;10.40;99.90;;;;;;10478530;28;20349;-67
2023/01/05 01:33:27;;;;;;;0.90;0.90;;;10.40;99.90;;;;;;10471057;28;20621;-67
2023/01/05 01:38:28;;;;;;;1.17;0.97;;;10.50;99.90;;;;;;10466792;28;20227;-67
2023/01/05 01:43:42;;;;;;;1.20;0.90;;;10.40;99.90;;;;;;10470241;28;20215;-67
2023/01/05 01:48:49;;;;;;;1.50;1.40;;;10.50;99.90;;;;;;10488504;28;20226;-69
2023/01/05 01:53:54;;;;;;;2.73;1.10;;;10.50;99.90;;;;;;10467248;28;20232;-70
2023/01/05 01:58:55;;;;;;;1.00;1.00;;;10.50;99.90;;;;;;10453746;28;20293;-70
2023/01/05 02:03:56;;;;;;;0.93;0.90;;;10.60;99.90;;;;;;10466563;28;20365;-70
2023/01/05 02:08:57;;;;;;;1.07;1.07;;;10.60;99.90;;;;;;10454245;28;20214;-67
2023/01/05 02:14:35;;;;;;;1.40;1.00;;;10.60;99.90;;;;;;10473598;28;20260;-67
2023/01/05 02:20:21;;;;;;;3.10;1.37;;;10.60;99.90;;;;;;10344826;28;20222;-67
2023/01/05 02:25:38;;;;;;;3.03;1.27;;;10.60;99.90;;;;;;10456026;28;20691;-67
2023/01/05 02:30:46;;;;;;;3.17;1.13;;;10.60;99.90;;;;;;10475331;28;20221;-68
2023/01/05 02:36:17;;;;;;;2.77;1.17;;;10.70;99.90;;;;;;10475114;28;20237;-68
2023/01/05 02:41:23;;;;;;;1.10;1.00;;;10.70;99.90;;;;;;10482401;28;20221;-69
2023/01/05 02:46:23;;;;;;;2.83;1.33;;;10.70;99.90;;;;;;10460321;28;20731;-69
2023/01/05 02:51:35;;;;;;;2.63;1.30;;;10.60;99.90;;;;;;10473988;28;20223;-68
2023/01/05 02:56:40;;;;;;;3.77;1.70;;;10.60;99.90;;;;;;10454050;28;20227;-68
2023/01/05 03:01:50;;;;;;;5.03;1.10;;;10.60;99.90;;;;;;10482983;28;20234;-67
2023/01/05 03:06:57;;;;;;;12.30;1.53;;;10.60;99.90;;;;;;10475856;28;20867;-66
2023/01/05 03:17:57;;;;;;;14.23;2.17;;;10.50;99.90;;;;;;10476783;28;20580;-67
2023/01/05 03:39:25;;;;;;;18.20;3.03;;;10.30;99.90;;;;;;10472011;28;20246;-68
2023/01/05 03:44:26;;;;;;;13.17;2.00;;;10.30;99.90;;;;;;10483771;28;20724;-68
2023/01/05 03:49:26;;;;;;;16.63;3.00;;;10.30;99.90;;;;;;10471434;28;20215;-67
2023/01/05 03:54:27;;;;;;;26.07;3.10;;;10.30;99.90;;;;;;10457418;28;20734;-67
2023/01/05 03:59:27;;;;;;;19.67;2.97;;;10.30;99.90;;;;;;10471877;28;20224;-67
2023/01/05 04:04:28;;;;;;;26.87;3.07;;;10.20;99.90;;;;;;10473376;28;20234;-67
2023/01/05 04:09:28;;;;;;;24.60;3.00;;;10.10;99.90;;;;;;10463102;28;20215;-69
2023/01/05 04:14:29;;;;;;;26.37;3.33;;;10.00;99.90;;;;;;10473971;28;20212;-65
2023/01/05 04:19:29;;;;;;;18.97;2.90;;;10.00;99.90;;;;;;10470885;28;20218;-68
2023/01/05 04:24:30;;;;;;;17.47;3.00;;;10.00;99.90;;;;;;10455457;28;20593;-69
2023/01/05 04:29:30;;;;;;;17.30;3.37;;;9.90;99.90;;;;;;10486546;28;20206;-67
2023/01/05 04:34:31;;;;;;;17.70;3.20;;;9.90;99.90;;;;;;10450082;28;20211;-68
2023/01/05 04:39:32;;;;;;;21.77;3.10;;;10.00;99.90;;;;;;10475787;28;20301;-69
2023/01/05 04:44:32;;;;;;;19.60;2.93;;;9.90;99.90;;;;;;10475887;28;20229;-68
2023/01/05 04:49:33;;;;;;;22.00;3.53;;;9.90;99.90;;;;;;10480435;28;20664;-68
2023/01/05 04:54:33;;;;;;;20.57;3.20;;;10.00;99.90;;;;;;10468294;28;20358;-69
2023/01/05 04:59:34;;;;;;;16.03;2.70;;;10.00;99.90;;;;;;10471936;28;20751;-67
2023/01/05 05:04:34;;;;;;;17.00;3.10;;;10.10;99.90;;;;;;10493090;28;20223;-66
2023/01/05 05:09:35;;;;;;;15.10;2.90;;;10.10;99.90;;;;;;10460068;28;20214;-67
2023/01/05 05:14:37;;;;;;;17.97;2.93;;;10.10;99.90;;;;;;10473263;28;20227;-68
2023/01/05 05:19:38;;;;;;;15.53;3.13;;;10.10;99.90;;;;;;10460873;28;20220;-69
2023/01/05 05:24:38;;;;;;;11.33;2.70;;;10.20;99.90;;;;;;10477375;28;20231;-69
2023/01/05 05:29:39;;;;;;;13.60;2.43;;;10.20;99.90;;;;;;10470302;28;20227;-70
2023/01/05 05:34:40;;;;;;;10.53;2.50;;;10.40;99.90;;;;;;10477380;28;20218;-68
2023/01/05 05:39:40;;;;;;;12.23;2.60;;;10.40;99.90;;;;;;10451384;28;20230;-69
2023/01/05 05:44:41;;;;;;;10.10;2.03;;;10.50;99.90;;;;;;10477524;28;20827;-67
2023/01/05 05:49:41;;;;;;;9.73;3.10;;;10.60;99.90;;;;;;10484276;28;20291;-67
2023/01/05 05:54:42;;;;;;;14.93;2.80;;;10.60;99.90;;;;;;10464964;28;20225;-67
2023/01/05 05:59:43;;;;;;;13.40;2.70;;;10.70;99.90;;;;;;10451107;28;20313;-68
2023/01/05 06:04:43;;;;;;;13.03;2.57;;;10.70;99.90;;;;;;10469904;28;20715;-69
2023/01/05 06:09:44;;;;;;;12.20;2.57;;;10.60;99.90;;;;;;10475776;28;20572;-69
2023/01/05 06:14:44;;;;;;;11.50;2.60;;;10.70;99.90;;;;;;10490244;28;20300;-70
2023/01/05 06:19:45;;;;;;;12.47;2.73;;;10.70;99.90;;;;;;10486915;28;20271;-68
2023/01/05 06:24:45;;;;;;;11.37;2.53;;;10.80;99.90;;;;;;10483278;28;20223;-72
2023/01/05 06:29:46;;;;;;;11.63;2.50;;;10.80;99.90;;;;;;10491294;28;20214;-71
2023/01/05 06:34:47;;;;;;;10.00;2.17;;;10.70;99.90;;;;;;10482454;28;20873;-74
2023/01/05 06:39:47;;;;;;;12.67;2.70;;;10.70;99.90;;;;;;10482623;28;20218;-74
2023/01/05 06:44:48;;;;;;;9.83;2.40;;;10.60;99.90;;;;;;10498261;28;20314;-68
2023/01/05 06:49:48;;;;;;;13.27;2.53;;;10.60;99.90;;;;;;10484612;28;20313;-73
2023/01/05 06:54:49;;;;;;;9.60;2.20;;;10.60;99.90;;;;;;10486505;28;20226;-74
2023/01/05 06:59:50;;;;;;;10.93;2.33;;;10.60;99.90;;;;;;10493617;28;20244;-69
2023/01/05 07:04:50;;;;;;;13.10;2.47;;;10.70;99.90;;;;;;10501163;28;20631;-71
2023/01/05 07:09:51;;;;;;;8.03;2.13;;;10.60;99.90;;;;;;10479579;28;20733;-71
2023/01/05 07:14:53;;;;;;;10.93;2.30;;;10.60;99.90;;;;;;10466256;28;20242;-70
2023/01/05 07:19:54;;;;;;;11.03;2.30;;;10.60;99.90;;;;;;10483673;28;20215;-70
2023/01/05 07:24:54;;;;;;;12.93;2.37;;;10.60;99.90;;;;;;10476500;28;20297;-68
2023/01/05 07:29:55;;;;;;;9.70;2.40;;;10.60;99.90;;;;;;10454509;28;20215;-70
2023/01/05 07:34:55;;;;;;;9.03;2.40;;;10.70;99.90;;;;;;10445192;28;20749;-68
2023/01/05 07:39:56;;;;;;;8.63;2.10;;;10.70;99.90;;;;;;10452333;28;20701;-67
2023/01/05 07:44:56;;;;;;;6.80;1.70;;;10.60;99.90;;;;;;10492691;28;20285;-69
2023/01/05 07:49:57;;;;;;;11.60;2.20;;;10.60;99.90;;;;;;10489007;28;20265;-69
2023/01/05 07:54:57;;;;;;;6.43;1.73;;;10.60;99.90;;;;;;10494028;28;20749;-69
2023/01/05 07:59:58;;;;;;;10.70;2.10;;;10.60;99.90;;;;;;10474639;28;20214;-71
2023/01/05 08:04:59;;;;;;;12.27;2.30;;;10.60;99.90;;;;;;10493819;28;20218;-71
2023/01/05 08:15:18;;;;;;;8.60;2.00;;;10.60;99.90;;;;;;10486970;28;20215;-71
2023/01/05 08:20:19;;;;;;;11.43;2.20;;;10.70;99.90;;;;;;10456820;28;20191;-70
2023/01/05 08:25:20;;;;;;;9.87;2.70;;;10.70;99.90;;;;;;10473668;28;20236;-71
2023/01/05 08:30:20;;;;;;;7.17;2.00;;;10.80;99.90;;;;;;10477499;28;20186;-72
2023/01/05 08:35:21;;;;;;;8.63;2.40;;;10.80;99.90;;;;;;10459682;28;20735;-71
2023/01/05 08:40:22;;;;;;;13.47;2.53;;;11.00;99.90;;;;;;10479821;28;20186;-71
2023/01/05 08:45:23;;;;;;;8.70;2.37;;;11.20;99.90;;;;;;10475172;28;20203;-71
2023/01/05 08:50:24;;;;;;;7.07;2.23;;;11.40;99.90;;;;;;10470891;28;20282;-70
2023/01/05 08:55:24;;;;;;;12.67;2.87;;;11.60;99.90;;;;;;10480253;28;20583;-71
2023/01/05 09:00:25;;;;;;;11.40;2.33;;;11.80;99.90;;;;;;10489662;28;20285;-71
2023/01/05 09:05:25;;;;;;;10.13;2.70;;;11.90;99.90;;;;;;10477165;28;20278;-71
2023/01/05 09:10:26;;;;;;;15.37;3.23;;;11.90;99.90;;;;;;10461273;28;20829;-70
2023/01/05 09:15:26;;;;;;;12.00;2.50;;;11.90;99.90;;;;;;10485096;28;20330;-70
2023/01/05 09:20:27;;;;;;;12.60;3.00;;;11.90;99.90;;;;;;10474565;28;20296;-71
2023/01/05 09:25:28;;;;;;;8.07;2.67;;;11.90;99.90;;;;;;10453814;28;20237;-71
2023/01/05 09:30:28;;;;;;;12.37;2.73;;;12.00;99.90;;;;;;10476835;28;20237;-71
2023/01/05 09:35:32;;;;;;;7.70;2.07;;;12.10;99.90;;;;;;10468348;28;20321;-68
2023/01/05 09:40:40;;;;;;;11.37;2.00;;;12.20;99.90;;;;;;10471020;28;20634;-73
2023/01/05 09:45:41;;;;;;;11.60;2.60;;;12.30;99.90;;;;;;10448851;28;20289;-73
2023/01/05 09:50:42;;;;;;;10.57;2.50;;;12.30;99.90;;;;;;10464439;28;20296;-73
2023/01/05 09:55:45;;;;;;;8.90;2.50;;;12.30;99.90;;;;;;10448450;28;20253;-72
2023/01/05 10:01:13;;;;;;;9.80;2.47;;;12.50;99.90;;;;;;10473726;28;20436;-73
2023/01/05 10:06:14;;;;;;;7.10;2.20;;;12.50;99.90;;;;;;10459167;28;20225;-72
2023/01/05 10:16:55;;;;;;;16.07;3.47;;;12.70;99.90;;;;;;10472413;28;20211;-72
2023/01/05 10:22:20;;;;;;;9.27;2.43;;;12.70;99.90;;;;;;10465440;28;20318;-73
2023/01/05 10:27:28;;;;;;;10.63;2.70;;;12.70;99.90;;;;;;10457606;28;20224;-68
2023/01/05 10:32:55;;;;;;;9.20;2.23;;;12.70;99.90;;;;;;10462517;28;20237;-71
2023/01/05 10:38:23;;;;;;;15.50;3.20;;;12.80;99.90;;;;;;10463984;28;20223;-73
2023/01/05 10:43:41;;;;;;;9.80;3.00;;;12.90;99.90;;;;;;10472279;28;20276;-73
2023/01/05 10:48:41;;;;;;;10.57;2.63;;;12.90;99.90;;;;;;10479179;28;20403;-69
2023/01/05 10:53:43;;;;;;;20.17;4.00;;;12.80;99.90;;;;;;10465148;28;20231;-72
2023/01/05 10:58:45;;;;;;;13.30;2.90;;;12.80;99.90;;;;;;10472019;28;20221;-73
2023/01/05 11:03:48;;;;;;;12.97;3.13;;;12.80;99.90;;;;;;10487838;28;20244;-73
2023/01/05 11:08:49;;;;;;;12.33;2.97;;;12.80;99.90;;;;;;10494534;28;20223;-72
2023/01/05 11:13:53;;;;;;;13.87;3.60;;;12.80;99.90;;;;;;10477058;28;20313;-72
2023/01/05 11:18:57;;;;;;;16.20;3.50;;;13.00;99.90;;;;;;10479773;28;20220;-71
2023/01/05 11:23:58;;;;;;;14.37;3.40;;;13.20;99.90;;;;;;10508397;28;20214;-70
2023/01/05 11:29:07;;;;;;;11.97;3.07;;;13.30;99.90;;;;;;10466099;28;20637;-70
2023/01/05 11:34:26;;;;;;;15.60;3.10;;;13.40;99.90;;;;;;10479810;28;20218;-70
2023/01/05 11:39:34;;;;;;;17.63;3.37;;;13.40;99.90;;;;;;10499355;28;20214;-70
2023/01/05 11:44:35;;;;;;;11.30;3.27;;;13.50;99.90;;;;;;10470017;28;20226;-70
2023/01/05 11:49:36;;;;;;;15.10;3.70;;;13.60;99.90;;;;;;10479986;28;20222;-70
2023/01/05 11:54:38;;;;;;;16.40;3.33;;;13.60;99.90;;;;;;10470745;28;20223;-69
2023/01/05 11:59:39;;;;;;;13.57;3.60;;;13.80;99.90;;;;;;10461491;28;20229;-70
2023/01/05 12:04:54;;;;;;;12.93;3.13;;;13.90;99.90;;;;;;10476384;28;20337;-71
2023/01/05 12:10:33;;;;;;;15.13;3.53;;;14.00;99.90;;;;;;10470284;28;20685;-70
2023/01/05 12:15:52;;;;;;;17.13;3.20;;;14.20;99.90;;;;;;10469702;28;20286;-74
2023/01/05 12:20:55;;;;;;;17.47;3.30;;;14.40;99.90;;;;;;10459864;28;20246;-73
2023/01/05 12:26:07;;;;;;;12.10;2.90;;;14.40;99.90;;;;;;10469809;28;20235;-71
2023/01/05 12:31:28;;;;;;;10.97;2.87;;;14.30;99.90;;;;;;10458020;28;20259;-70
2023/01/05 12:36:44;;;;;;;11.90;3.20;;;14.20;99.90;;;;;;10471303;28;20281;-70
2023/01/05 12:42:19;;;;;;;13.53;3.07;;;14.30;99.90;;;;;;10467720;28;20222;-71
2023/01/05 12:47:33;;;;;;;15.70;3.43;;;14.40;99.90;;;;;;10453407;28;20334;-71
2023/01/05 12:52:40;;;;;;;13.57;3.40;;;14.50;99.90;;;;;;10457458;28;20255;-71
2023/01/05 12:57:47;;;;;;;17.30;3.23;;;14.10;99.90;;;;;;10471923;28;20244;-72
2023/01/05 13:02:55;;;;;;;16.83;3.70;;;13.90;99.90;;;;;;10464784;28;20305;-73
2023/01/05 13:08:37;;;;;;;12.37;4.20;;;13.90;99.90;;;;;;10475667;28;20256;-71
2023/01/05 13:13:42;;;;;;;15.50;3.43;;;13.80;99.90;;;;;;10471475;28;20258;-71
2023/01/05 13:18:52;;;;;;;12.13;2.93;;;13.70;99.90;;;;;;10474625;28;20796;-73
2023/01/05 13:24:25;;;;;;;13.27;3.50;;;13.50;99.90;;;;;;10464968;28;20546;-74
2023/01/05 13:29:40;;;;;;;11.77;3.23;;;13.40;99.90;;;;;;10438029;28;20232;-73
2023/01/05 13:34:56;;;;;;;13.53;2.97;;;13.40;99.90;;;;;;10445038;28;20246;-73
2023/01/05 13:40:30;;;;;;;10.30;2.60;;;13.40;99.90;;;;;;10463882;28;20225;-74
2023/01/05 13:45:51;;;;;;;9.00;2.50;;;13.50;99.90;;;;;;10481824;28;20321;-74
2023/01/05 13:51:19;;;;;;;8.57;2.23;;;13.30;99.90;;;;;;10437873;28;20237;-71
2023/01/05 13:56:23;;;;;;;12.73;2.53;;;13.00;99.90;;;;;;10446956;28;20232;-72
2023/01/05 14:01:39;;;;;;;13.53;3.27;;;12.80;99.90;;;;;;10446025;28;20233;-71
2023/01/05 14:06:44;;;;;;;12.77;2.73;;;12.70;99.90;;;;;;10454389;28;20313;-72
2023/01/05 14:12:07;;;;;;;14.80;3.30;;;12.60;99.90;;;;;;10476286;28;20242;-74
2023/01/05 14:17:08;;;;;;;12.90;2.93;;;12.30;99.90;;;;;;10492681;28;20217;-71
2023/01/05 14:22:31;;;;;;;10.20;2.97;;;12.10;99.90;;;;;;10463287;28;20719;-72
2023/01/05 14:28:10;;;;;;;13.93;3.23;;;11.80;99.90;;;;;;10478037;28;20226;-70
2023/01/05 14:33:11;;;;;;;16.17;4.03;;;11.60;99.90;;;;;;10489452;28;20222;-70
2023/01/05 14:38:21;;;;;;;10.73;3.43;;;11.40;99.90;;;;;;10482527;28;20210;-71
2023/01/05 14:43:32;;;;;;;12.13;3.07;;;11.30;99.90;;;;;;10497059;28;20745;-67
2023/01/05 14:49:04;;;;;;;17.60;3.50;;;11.20;99.90;;;;;;10496830;28;20213;-67
2023/01/05 14:54:05;;;;;;;17.73;3.83;;;11.30;99.90;;;;;;10494092;28;20247;-68
2023/01/05 14:59:24;;;;;;;16.17;3.40;;;11.30;99.90;;;;;;10492682;28;20226;-68
2023/01/05 15:04:32;;;;;;;10.30;3.33;;;11.40;99.90;;;;;;10492970;28;20233;-68
2023/01/05 15:09:43;;;;;;;10.73;3.27;;;11.40;99.90;;;;;;10490059;28;20217;-68
2023/01/05 15:14:50;;;;;;;13.83;3.63;;;11.40;99.90;;;;;;10481060;28;20218;-67
2023/01/05 15:19:53;;;;;;;15.93;3.63;;;11.40;99.90;;;;;;10442918;28;20230;-69
2023/01/05 15:25:02;;;;;;;17.10;3.33;;;11.50;99.90;;;;;;10453777;28;20245;-69
2023/01/05 15:30:29;;;;;;;10.60;2.70;;;11.50;99.90;;;;;;10441590;28;20316;-68
2023/01/05 15:35:46;;;;;;;14.10;3.53;;;11.50;99.90;;;;;;10431156;28;20263;-72
2023/01/05 15:40:47;;;;;;;15.67;3.93;;;11.50;99.90;;;;;;10468059;28;20591;-70
2023/01/05 15:45:52;;;;;;;13.60;3.47;;;11.50;99.90;;;;;;10478821;28;20709;-71
2023/01/05 15:50:57;;;;;;;16.77;4.27;;;11.50;99.90;;;;;;10484041;28;20283;-71
2023/01/05 15:55:59;;;;;;;18.37;3.73;;;11.50;99.90;;;;;;10475705;28;20219;-71
2023/01/05 16:01:04;;;;;;;17.03;3.37;;;11.50;99.90;;;;;;10470345;28;20246;-72
2023/01/05 16:06:19;;;;;;;18.60;5.17;;;11.40;99.90;;;;;;10506188;28;20225;-71
2023/01/05 16:11:25;;;;;;;13.47;3.70;;;11.40;99.90;;;;;;10473618;28;20289;-69
2023/01/05 16:16:37;;;;;;;15.00;4.10;;;11.30;99.90;;;;;;10483720;28;20227;-74
2023/01/05 16:22:02;;;;;;;14.93;3.40;;;11.30;99.90;;;;;;10490424;28;20211;-74
2023/01/05 16:27:05;;;;;;;21.73;4.13;;;11.20;99.90;;;;;;10502087;28;20225;-73
2023/01/05 16:32:30;;;;;;;14.80;3.20;;;11.10;99.90;;;;;;10482200;28;20237;-73
2023/01/05 16:37:31;;;;;;;16.77;3.30;;;11.00;99.90;;;;;;10481534;28;20218;-74
2023/01/05 16:42:38;;;;;;;14.03;3.07;;;11.00;99.90;;;;;;10497793;28;20225;-71
2023/01/05 16:47:40;;;;;;;16.93;3.30;;;11.00;99.90;;;;;;10470064;28;20226;-72
2023/01/05 16:52:41;;;;;;;17.00;3.50;;;11.00;99.90;;;;;;10469191;28;20226;-73
2023/01/05 16:57:42;;;;;;;15.73;3.60;;;11.00;99.90;;;;;;10489109;28;20227;-73
2023/01/05 17:02:48;;;;;;;16.93;3.80;;;11.00;99.90;;;;;;10476881;28;20229;-70
2023/01/05 17:08:12;;;;;;;12.33;4.10;;;11.00;99.90;;;;;;10494075;28;20827;-72
2023/01/05 17:13:20;;;;;;;14.60;3.43;;;10.90;99.90;;;;;;10474170;28;20215;-72
2023/01/05 17:18:27;;;;;;;13.93;3.10;;;10.80;99.90;;;;;;10478538;28;20223;-72
2023/01/05 17:23:45;;;;;;;18.43;4.23;;;10.80;99.90;;;;;;10479052;28;20233;-72
2023/01/05 17:28:46;;;;;;;13.97;3.40;;;10.70;99.90;;;;;;10468450;28;20242;-71
2023/01/05 17:33:46;;;;;;;17.57;4.00;;;10.50;99.90;;;;;;10470220;28;20254;-72
2023/01/05 17:38:47;;;;;;;18.93;4.00;;;10.40;99.90;;;;;;10469320;28;20228;-71
2023/01/05 17:43:48;;;;;;;18.57;3.40;;;10.30;99.90;;;;;;10465914;28;20220;-70
2023/01/05 17:48:48;;;;;;;16.73;3.63;;;10.30;99.90;;;;;;10476292;28;20671;-71
2023/01/05 17:53:49;;;;;;;18.87;3.70;;;10.40;99.90;;;;;;10467894;28;20238;-73
2023/01/05 17:58:51;;;;;;;15.37;3.50;;;10.50;99.90;;;;;;10457566;28;20219;-74
2023/01/05 18:03:51;;;;;;;16.20;4.30;;;10.60;99.90;;;;;;10464494;28;20725;-73
2023/01/05 18:08:52;;;;;;;17.63;3.70;;;10.70;99.90;;;;;;10454825;28;20247;-71
2023/01/05 18:13:53;;;;;;;20.10;4.10;;;10.80;99.90;;;;;;10466044;28;20231;-69
2023/01/05 18:18:53;;;;;;;13.57;3.70;;;10.90;99.90;;;;;;10468334;28;20238;-71
2023/01/05 18:23:55;;;;;;;18.43;4.30;;;10.90;99.90;;;;;;10453738;28;20222;-71
2023/01/05 18:28:55;;;;;;;19.37;4.33;;;11.00;99.90;;;;;;10463615;28;20704;-69
2023/01/05 18:33:56;;;;;;;17.50;3.83;;;10.90;99.90;;;;;;10473017;28;20312;-72
2023/01/05 18:38:57;;;;;;;17.20;4.10;;;10.90;99.90;;;;;;10461894;28;20772;-71
2023/01/05 18:43:57;;;;;;;18.53;4.30;;;11.00;99.90;;;;;;10441290;28;20235;-72
2023/01/05 18:48:58;;;;;;;21.27;4.43;;;11.00;99.90;;;;;;10459288;28;20337;-71
2023/01/05 18:54:00;;;;;;;17.57;3.83;;;11.00;99.90;;;;;;10449541;28;20241;-70
2023/01/05 18:59:01;;;;;;;16.90;4.40;;;11.00;99.90;;;;;;10477301;28;20233;-73
2023/01/05 19:04:03;;;;;;;16.63;4.47;;;11.00;99.90;;;;;;10459207;28;20541;-72
2023/01/05 19:09:07;;;;;;;12.67;3.90;;;11.00;99.90;;;;;;10470488;28;20226;-73
2023/01/05 19:14:08;;;;;;;13.43;4.07;;;11.10;99.90;;;;;;10468607;28;20262;-73
2023/01/05 19:19:11;;;;;;;14.77;4.23;;;11.10;99.90;;;;;;10484080;28;20237;-71
2023/01/05 19:24:18;;;;;;;14.80;3.27;;;11.10;99.90;;;;;;10466066;28;20767;-69
2023/01/05 19:29:19;;;;;;;19.97;4.23;;;11.10;99.90;;;;;;10479871;28;20228;-74
2023/01/05 19:34:20;;;;;;;17.10;4.30;;;11.10;99.90;;;;;;10484376;28;20226;-69
2023/01/05 19:39:21;;;;;;;18.43;4.17;;;11.10;99.90;;;;;;10464005;28;20894;-73
2023/01/05 19:44:22;;;;;;;21.47;4.80;;;10.90;99.90;;;;;;10471677;28;20235;-71
2023/01/05 19:49:24;;;;;;;18.17;4.63;;;10.80;99.90;;;;;;10477426;28;20542;-73
2023/01/05 19:54:25;;;;;;;13.20;4.20;;;10.70;99.90;;;;;;10494122;28;20238;-72
2023/01/05 19:59:31;;;;;;;16.40;4.20;;;10.50;99.90;;;;;;10473829;28;20227;-73
2023/01/05 20:04:32;;;;;;;16.50;4.33;;;10.50;99.90;;;;;;10468201;28;20296;-69
2023/01/05 20:09:33;;;;;;;16.33;4.73;;;10.50;99.90;;;;;;10475101;28;20271;-68
2023/01/05 20:14:34;;;;;;;17.43;4.57;;;10.50;99.90;;;;;;10464376;28;20226;-72
2023/01/05 20:19:36;;;;;;;24.63;4.60;;;10.50;99.90;;;;;;10457264;28;20305;-75
2023/01/05 20:24:37;;;;;;;15.80;3.97;;;10.50;99.90;;;;;;10470780;28;20259;-70
2023/01/05 20:29:39;;;;;;;18.07;5.00;;;10.50;99.90;;;;;;10470672;28;20296;-72
2023/01/05 20:34:42;;;;;;;17.27;3.70;;;10.50;99.90;;;;;;10469115;28;20717;-71
2023/01/05 20:39:43;;;;;;;16.33;4.17;;;10.50;99.90;;;;;;10476232;28;20238;-67
2023/01/05 20:44:45;;;;;;;19.03;4.30;;;10.50;99.90;;;;;;10473627;28;20236;-73
2023/01/05 20:49:46;;;;;;;13.93;3.73;;;10.50;99.90;;;;;;10472456;28;20230;-69
2023/01/05 20:54:48;;;;;;;14.10;3.97;;;10.60;99.90;;;;;;10468313;28;20237;-70
2023/01/05 20:59:49;;;;;;;12.43;3.37;;;10.60;99.90;;;;;;10472102;28;20214;-72
2023/01/05 21:04:52;;;;;;;14.40;3.90;;;10.60;99.90;;;;;;10490546;28;20225;-73
2023/01/05 21:09:53;;;;;;;9.33;2.97;;;10.70;99.90;;;;;;10458423;28;20214;-72
2023/01/05 21:14:54;;;;;;;17.70;3.90;;;10.70;99.90;;;;;;10470263;28;20231;-71
2023/01/05 21:19:56;;;;;;;14.33;3.00;;;10.80;99.90;;;;;;10441869;28;20689;-75
2023/01/05 21:24:57;;;;;;;10.87;3.30;;;10.80;99.90;;;;;;10473718;28;20249;-74
2023/01/05 21:29:57;;;;;;;14.00;3.33;;;10.90;99.90;;;;;;10466747;28;20605;-69
2023/01/05 21:34:58;;;;;;;13.30;3.23;;;10.80;99.90;;;;;;10483011;28;20219;-69
2023/01/05 21:39:58;;;;;;;13.40;3.33;;;10.90;99.90;;;;;;10494046;28;20251;-68
2023/01/05 21:44:59;;;;;;;13.73;3.03;;;10.90;99.90;;;;;;10469928;28;20234;-68
2023/01/05 21:50:00;;;;;;;10.53;2.70;;;10.90;99.90;;;;;;10466505;28;20591;-70
2023/01/05 22:00:20;;;;;;;12.07;3.30;;;11.10;99.90;;;;;;10470427;28;20205;-70
2023/01/05 22:05:20;;;;;;;9.57;2.87;;;11.10;99.90;;;;;;10463137;28;20686;-70
2023/01/05 22:10:22;;;;;;;7.93;2.67;;;11.10;99.90;;;;;;10468947;28;20178;-69
2023/01/05 22:15:23;;;;;;;12.93;3.10;;;11.10;99.90;;;;;;10459372;28;20205;-67
2023/01/05 22:20:23;;;;;;;9.13;2.73;;;11.20;99.90;;;;;;10467448;28;20564;-68
2023/01/05 22:25:24;;;;;;;11.47;2.93;;;11.20;99.90;;;;;;10463022;28;20340;-68
2023/01/05 22:30:31;;;;;;;9.37;2.90;;;11.10;99.90;;;;;;10480684;28;20542;-69
2023/01/05 22:35:31;;;;;;;8.93;2.33;;;11.20;99.90;;;;;;10464579;28;20710;-68
2023/01/05 22:40:32;;;;;;;9.60;2.40;;;11.20;99.90;;;;;;10454333;28;20263;-68
2023/01/05 22:45:32;;;;;;;6.20;2.43;;;11.20;99.90;;;;;;10461801;28;21080;-70
2023/01/05 22:50:33;;;;;;;6.50;2.67;;;11.20;99.90;;;;;;10486164;28;20214;-67
2023/01/05 22:55:34;;;;;;;8.23;2.90;;;11.20;99.90;;;;;;10466084;28;20224;-68
2023/01/05 23:00:34;;;;;;;5.67;2.50;;;11.20;99.90;;;;;;10468560;28;20210;-70
2023/01/05 23:05:39;;;;;;;11.50;3.07;;;11.20;99.90;;;;;;10482271;28;20227;-68
2023/01/05 23:10:39;;;;;;;8.23;2.53;;;11.20;99.90;;;;;;10472077;28;20714;-69
2023/01/05 23:15:40;;;;;;;7.33;2.90;;;11.10;99.90;;;;;;10466905;28;20231;-69
2023/01/05 23:20:40;;;;;;;7.00;2.67;;;11.10;99.90;;;;;;10479302;28;20227;-71
2023/01/05 23:25:43;;;;;;;7.00;2.40;;;11.20;99.90;;;;;;10480205;28;20330;-70
2023/01/05 23:30:45;;;;;;;7.77;2.93;;;11.20;99.90;;;;;;10480121;28;20224;-71
2023/01/05 23:35:48;;;;;;;8.57;3.07;;;11.20;99.90;;;;;;10458786;28;20232;-70
2023/01/05 23:40:51;;;;;;;10.10;3.07;;;11.10;99.90;;;;;;10480854;28;20224;-71
2023/01/05 23:45:58;;;;;;;7.07;2.70;;;11.10;99.90;;;;;;10477409;28;20242;-71
2023/01/05 23:50:59;;;;;;;8.37;3.10;;;11.00;99.90;;;;;;10491275;28;20224;-69
2023/01/05 23:56:30;;;;;;;8.33;3.10;;;11.00;99.90;;;;;;10477371;28;20237;-69
